x

North Equatorial One- 470 Nm East Of Martinique (41040) Wave Buoy

8:50pm - Sat 30th May 2015 All times are UTC.

  • Sig Wave height 7.2ft
  • Swell Direction
  • Peak Period 8s
  • Average Period 6s
  • Wind
    18mph, 22mph gusts
  • Sea Temp 80°f
  • Air Temp 79°f
  • Sea Pressure 1014.1mb

More Historic Weather Station data

Upgrade to MSW Pro to gain access to the past 30 days of data for over 8000 Wavebouys and Weather Stations around the globe.

Join Pro

Comparision Forecast

View Surf forecast
   
Sat 05/30 8:50pm 7ft 8s 6s 18 22 mph 1014.1mb 80f 79f
7:50pm 7ft 8s 6s 18 22 mph 1014mb 80f 77f
6:50pm 7ft 8s 6s 20 25 mph 1013.9mb 80f 78f
5:50pm 7ft 8s 6s 18 22 mph 1014.2mb 80f 79f
4:50pm 7.5ft 8s 6s 20 25 mph 1014.8mb 80f 77f
3:50pm 7ft 8s 6s 20 22 mph 1015mb 80f 79f
2:50pm 7.5ft 8s 6s 18 22 mph 1015.3mb 80f 79f
1:50pm 8ft 8s 6s 20 22 mph 1015.4mb 80f 79f
12:50pm 7.5ft 8s 6s 20 25 mph 1015.1mb 80f 80f
11:50am 7ft 8s 6s 18 22 mph 1015mb 80f 78f
10:50am 8ft 8s 6s 22 27 mph 1014.4mb 79f 77f
9:50am 7ft 8s 6s 18 22 mph 1013.9mb 79f 79f
8:50am 7ft 8s 6s 18 22 mph 1013.3mb 79f 79f
7:50am 7.5ft 8s 6s 22 25 mph 1012.8mb 79f 78f
6:50am 7ft 8s 6s 18 22 mph 1012.8mb 79f 78f
5:50am 7ft 8s 6s 20 25 mph 1012.7mb 79f 79f
4:50am 7ft 8s 6s 18 22 mph 1013.2mb 79f 79f
3:50am 7ft 8s 6s 25 29 mph 1013.9mb 80f 78f
2:50am 7ft 8s 6s 18 22 mph 1014.8mb 80f 79f
1:50am 6.5ft 8s 6s 20 22 mph 1015mb 80f 79f
12:50am 7ft 8s 6s 22 25 mph 1014.8mb 80f 79f
Fri 05/29 11:50pm 7ft 8s 6s 18 20 mph 1015mb 80f 79f
10:50pm 7ft 8s 6s 20 25 mph 1014.6mb 80f 79f
9:50pm 7ft 8s 6s 18 22 mph 1014.4mb 80f 79f
8:50pm 7.5ft 8s 6s 18 22 mph 1014mb 80f 79f
7:50pm 7ft 8s 6s 18 20 mph 1013.8mb 80f 79f
5:50pm 8ft 9s 6s 18 22 mph 1014mb 80f 79f
4:50pm 8ft 8s 6s 18 22 mph 1014.5mb 80f 79f
3:50pm 7.5ft 8s 6s 18 25 mph 1014.9mb 80f 79f
2:50pm 8ft 8s 6s 20 22 mph 1015.3mb 80f 79f
1:50pm 7ft 8s 6s 22 25 mph 1015.4mb 80f 79f
12:50pm 7.5ft 8s 6s 22 27 mph 1015.4mb 80f 79f
11:50am 7ft 8s 6s 22 27 mph 1014.9mb 79f 79f
10:50am 7.5ft 8s 6s 20 25 mph 1014.7mb 79f 79f
9:50am 7.5ft 8s 6s 20 25 mph 1014.3mb 79f 79f
8:50am 7.5ft 8s 6s 22 25 mph 1013.8mb 79f 79f
7:50am 7ft 8s 6s 20 25 mph 1013.9mb 79f 79f
6:50am 7ft 8s 6s 20 25 mph 1013.7mb 79f 79f
5:50am 7ft 8s 6s 22 27 mph 1014mb 79f 79f
4:50am 6.5ft 7s 6s 22 25 mph 1014.5mb 79f 79f
3:50am 6.5ft 9s 6s 22 27 mph 1015mb 79f 79f
2:50am 6.5ft 8s 6s 22 27 mph 1015.7mb 79f 79f
1:50am 6.5ft 7s 6s 22 27 mph 1015.9mb 80f 79f
12:50am 6.5ft 8s 6s 22 25 mph 1015.7mb 80f 79f
Thu 05/28 11:50pm 7ft 8s 6s 20 25 mph 1015.7mb 80f 79f
10:50pm 6.5ft 7s 6s 20 22 mph 1015.4mb 80f 79f
9:50pm 6.5ft 8s 6s 18 22 mph 1015.4mb 80f 78f
8:50pm 6ft 7s 6s 18 20 mph 1014.5mb 80f 79f
7:50pm 6ft 8s 6s 16 18 mph 1014.2mb 80f 79f
6:50pm 6ft 8s 5s 18 25 mph 1014.2mb 80f 78f
5:50pm 5.5ft 7s 6s 20 27 mph 1014.1mb 80f 79f
3:50pm 5.5ft 7s 6s 16 18 mph 1014.9mb 80f 79f
2:50pm 6ft 6s 6s 16 20 mph 1015.5mb 80f 79f
1:50pm 6ft 8s 6s 16 18 mph 1016mb 80f 79f
12:50pm 6ft 7s 6s 18 20 mph 1015.6mb 80f 79f
11:50am 6ft 7s 6s 18 22 mph 1015.6mb 80f 79f
10:50am 5.5ft 7s 5s 20 25 mph 1015mb 80f 79f
9:50am 5.5ft 8s 5s 18 20 mph 1014.6mb 80f 79f
8:50am 6ft 7s 6s 18 22 mph 1014.1mb 80f 79f
7:50am 5.5ft 8s 6s 20 22 mph 1013.8mb 80f 79f
6:50am 5ft 7s 5s 18 20 mph 1013.8mb 80f 79f
5:50am 5ft 8s 5s 18 22 mph 1013.8mb 80f 79f
4:50am 5ft 6s 5s 18 22 mph 1014.5mb 80f 79f
3:50am 6ft 8s  -  16 20 mph 1015.2mb 80f 79f
2:50am 5.5ft 7s 6s 18 20 mph 1015.7mb 80f 79f
1:50am 5.5ft 9s 6s 18 20 mph 1015.8mb 80f 79f
12:50am 5.5ft 7s 6s 16 20 mph 1015.8mb 80f 79f
Wed 05/27 11:50pm 5.5ft 8s 6s 16 18 mph 1015.6mb 80f 79f
10:50pm 6ft 9s 6s 16 20 mph 1015mb 80f 79f
9:50pm 5.5ft 8s 6s 18 20 mph 1014.4mb 80f 79f
8:50pm 5ft 7s 6s 16 18 mph 1013.8mb 80f 79f
7:50pm 5ft 8s 6s 16 18 mph 1013.6mb 80f 79f
6:50pm 5ft 9s 6s 13 18 mph 1013.7mb 80f 79f
5:50pm 5ft 9s 5s 13 18 mph 1014.1mb 80f 79f
4:50pm 5ft 9s 6s 18 20 mph 1014.7mb 80f 78f
3:50pm 4.5ft 9s 6s 16 18 mph 1015.1mb 80f 79f
2:50pm 5ft 8s 6s 16 18 mph 1015.6mb 80f 79f
1:50pm 5ft 9s 6s 13 18 mph 1015.9mb 80f 79f
12:50pm 5ft 9s 6s 13 16 mph 1015.5mb 79f 79f
11:50am 4.5ft 8s 6s 13 16 mph 1015.2mb 79f 79f
10:50am 5ft 9s 6s 13 16 mph 1014.8mb 79f 79f
9:50am 4.5ft 7s 6s 13 16 mph 1014.4mb 79f 78f
8:50am 4.5ft 9s 6s 13 16 mph 1014mb 79f 78f
7:50am 5ft 8s 6s 13 18 mph 1013.7mb 79f 78f
6:50am 5ft 10s 6s 16 18 mph 1013.6mb 79f 78f
5:50am 4.5ft 8s 6s 16 18 mph 1013.7mb 79f 78f
4:50am 5ft 8s 6s 13 16 mph 1014.2mb 79f 78f
3:50am 5ft 10s 6s 13 16 mph 1015mb 79f 78f
2:50am 5ft 10s 6s 16 18 mph 1015.6mb 79f 79f
1:50am 5ft 8s 6s 13 16 mph 1016mb 79f 79f
12:50am 5ft 9s 6s 13 16 mph 1015.8mb 80f 79f
Tue 05/26 11:50pm 5ft 8s 6s 13 16 mph 1015.5mb 80f 79f
10:50pm 5.5ft 9s 6s 13 16 mph 1015.1mb 80f 79f